sensor_id;sensor_type;location;lat;lon;timestamp;temperature;humidity
22558;DHT22;11445;53.816;8.902;2023-02-14T00:01:09;6.00;99.90
22558;DHT22;11445;53.816;8.902;2023-02-14T00:03:36;6.00;99.90
22558;DHT22;11445;53.816;8.902;2023-02-14T00:06:05;6.00;99.90
22558;DHT22;11445;53.816;8.902;2023-02-14T00:08:32;6.00;99.90
22558;DHT22;11445;53.816;8.902;2023-02-14T00:10:59;6.00;99.90
22558;DHT22;11445;53.816;8.902;2023-02-14T00:13:27;6.00;99.90
22558;DHT22;11445;53.816;8.902;2023-02-14T00:15:55;6.00;99.90
22558;DHT22;11445;53.816;8.902;2023-02-14T00:18:21;6.00;99.90
22558;DHT22;11445;53.816;8.902;2023-02-14T00:21:08;6.00;99.90
22558;DHT22;11445;53.816;8.902;2023-02-14T00:23:36;6.00;99.90
22558;DHT22;11445;53.816;8.902;2023-02-14T00:26:03;6.00;99.90
22558;DHT22;11445;53.816;8.902;2023-02-14T00:28:30;6.00;99.90
22558;DHT22;11445;53.816;8.902;2023-02-14T00:31:00;5.90;99.90
22558;DHT22;11445;53.816;8.902;2023-02-14T00:33:27;5.90;99.90
22558;DHT22;11445;53.816;8.902;2023-02-14T00:35:54;5.90;99.90
22558;DHT22;11445;53.816;8.902;2023-02-14T00:38:21;5.80;99.90
22558;DHT22;11445;53.816;8.902;2023-02-14T00:40:48;5.80;99.90
22558;DHT22;11445;53.816;8.902;2023-02-14T00:43:15;5.90;99.90
22558;DHT22;11445;53.816;8.902;2023-02-14T00:45:42;5.90;99.90
22558;DHT22;11445;53.816;8.902;2023-02-14T00:48:11;5.90;99.90
22558;DHT22;11445;53.816;8.902;2023-02-14T00:50:38;5.90;99.90
22558;DHT22;11445;53.816;8.902;2023-02-14T00:53:05;5.90;99.90
22558;DHT22;11445;53.816;8.902;2023-02-14T00:55:32;5.90;99.90
22558;DHT22;11445;53.816;8.902;2023-02-14T00:57:59;5.90;99.90
22558;DHT22;11445;53.816;8.902;2023-02-14T01:00:26;5.90;99.90
22558;DHT22;11445;53.816;8.902;2023-02-14T01:02:53;5.80;99.90
22558;DHT22;11445;53.816;8.902;2023-02-14T01:05:22;5.80;99.90
22558;DHT22;11445;53.816;8.902;2023-02-14T01:07:49;5.80;99.90
22558;DHT22;11445;53.816;8.902;2023-02-14T01:10:16;5.80;99.90
22558;DHT22;11445;53.816;8.902;2023-02-14T01:12:43;5.80;99.90
22558;DHT22;11445;53.816;8.902;2023-02-14T01:15:10;5.80;99.90
22558;DHT22;11445;53.816;8.902;2023-02-14T01:17:37;5.80;99.90
22558;DHT22;11445;53.816;8.902;2023-02-14T01:20:06;5.80;99.90
22558;DHT22;11445;53.816;8.902;2023-02-14T01:22:36;5.80;99.90
22558;DHT22;11445;53.816;8.902;2023-02-14T01:25:04;5.80;99.90
22558;DHT22;11445;53.816;8.902;2023-02-14T01:27:31;5.80;99.90
22558;DHT22;11445;53.816;8.902;2023-02-14T01:29:58;5.80;99.90
22558;DHT22;11445;53.816;8.902;2023-02-14T01:32:25;5.80;99.90
22558;DHT22;11445;53.816;8.902;2023-02-14T01:34:55;5.80;99.90
22558;DHT22;11445;53.816;8.902;2023-02-14T01:37:22;5.80;99.90
22558;DHT22;11445;53.816;8.902;2023-02-14T01:39:51;5.80;99.90
22558;DHT22;11445;53.816;8.902;2023-02-14T01:42:18;5.80;99.90
22558;DHT22;11445;53.816;8.902;2023-02-14T01:44:57;5.80;99.90
22558;DHT22;11445;53.816;8.902;2023-02-14T01:47:26;5.80;99.90
22558;DHT22;11445;53.816;8.902;2023-02-14T01:49:58;5.80;99.90
22558;DHT22;11445;53.816;8.902;2023-02-14T01:52:29;5.80;99.90
22558;DHT22;11445;53.816;8.902;2023-02-14T01:55:01;5.80;99.90
22558;DHT22;11445;53.816;8.902;2023-02-14T01:57:33;5.80;99.90
22558;DHT22;11445;53.816;8.902;2023-02-14T02:00:03;5.80;99.90
22558;DHT22;11445;53.816;8.902;2023-02-14T02:02:48;5.80;99.90
22558;DHT22;11445;53.816;8.902;2023-02-14T02:05:16;5.80;99.90
22558;DHT22;11445;53.816;8.902;2023-02-14T02:07:48;5.80;99.90
22558;DHT22;11445;53.816;8.902;2023-02-14T02:10:19;5.80;99.90
22558;DHT22;11445;53.816;8.902;2023-02-14T02:12:47;5.70;99.90
22558;DHT22;11445;53.816;8.902;2023-02-14T02:15:15;5.70;99.90
22558;DHT22;11445;53.816;8.902;2023-02-14T02:17:50;5.70;99.90
22558;DHT22;11445;53.816;8.902;2023-02-14T02:23:50;5.70;99.90
22558;DHT22;11445;53.816;8.902;2023-02-14T02:29:54;5.70;99.90
22558;DHT22;11445;53.816;8.902;2023-02-14T02:38:54;5.70;99.90
22558;DHT22;11445;53.816;8.902;2023-02-14T02:41:29;5.70;99.90
22558;DHT22;11445;53.816;8.902;2023-02-14T02:44:06;5.70;99.90
22558;DHT22;11445;53.816;8.902;2023-02-14T02:46:39;5.70;99.90
22558;DHT22;11445;53.816;8.902;2023-02-14T02:49:35;5.70;99.90
22558;DHT22;11445;53.816;8.902;2023-02-14T02:52:29;5.70;99.90
22558;DHT22;11445;53.816;8.902;2023-02-14T02:55:19;5.70;99.90
22558;DHT22;11445;53.816;8.902;2023-02-14T02:57:50;5.70;99.90
22558;DHT22;11445;53.816;8.902;2023-02-14T03:00:19;5.70;99.90
22558;DHT22;11445;53.816;8.902;2023-02-14T03:02:50;5.60;99.90
22558;DHT22;11445;53.816;8.902;2023-02-14T03:05:35;5.70;99.90
22558;DHT22;11445;53.816;8.902;2023-02-14T03:08:05;5.70;99.90
22558;DHT22;11445;53.816;8.902;2023-02-14T03:10:35;5.60;99.90
22558;DHT22;11445;53.816;8.902;2023-02-14T03:13:29;5.60;99.90
22558;DHT22;11445;53.816;8.902;2023-02-14T03:16:16;5.60;99.90
22558;DHT22;11445;53.816;8.902;2023-02-14T03:19:07;5.60;99.90
22558;DHT22;11445;53.816;8.902;2023-02-14T03:21:41;5.60;99.90
22558;DHT22;11445;53.816;8.902;2023-02-14T03:24:15;5.60;99.90
22558;DHT22;11445;53.816;8.902;2023-02-14T03:26:48;5.60;99.90
22558;DHT22;11445;53.816;8.902;2023-02-14T03:29:23;5.60;99.90
22558;DHT22;11445;53.816;8.902;2023-02-14T03:31:59;5.60;99.90
22558;DHT22;11445;53.816;8.902;2023-02-14T03:34:31;5.60;99.90
22558;DHT22;11445;53.816;8.902;2023-02-14T03:37:05;5.60;99.90
22558;DHT22;11445;53.816;8.902;2023-02-14T03:39:40;5.60;99.90
22558;DHT22;11445;53.816;8.902;2023-02-14T03:42:13;5.60;99.90
22558;DHT22;11445;53.816;8.902;2023-02-14T03:44:43;5.60;99.90
22558;DHT22;11445;53.816;8.902;2023-02-14T03:47:13;5.60;99.90
22558;DHT22;11445;53.816;8.902;2023-02-14T03:49:46;5.60;99.90
22558;DHT22;11445;53.816;8.902;2023-02-14T03:52:15;5.60;99.90
22558;DHT22;11445;53.816;8.902;2023-02-14T03:54:45;5.60;99.90
22558;DHT22;11445;53.816;8.902;2023-02-14T03:57:17;5.50;99.90
22558;DHT22;11445;53.816;8.902;2023-02-14T03:59:45;5.60;99.90
22558;DHT22;11445;53.816;8.902;2023-02-14T04:02:15;5.60;99.90
22558;DHT22;11445;53.816;8.902;2023-02-14T04:04:46;5.60;99.90
22558;DHT22;11445;53.816;8.902;2023-02-14T04:07:16;5.60;99.90
22558;DHT22;11445;53.816;8.902;2023-02-14T04:09:45;5.60;99.90
22558;DHT22;11445;53.816;8.902;2023-02-14T04:12:14;5.60;99.90
22558;DHT22;11445;53.816;8.902;2023-02-14T04:14:41;5.60;99.90
22558;DHT22;11445;53.816;8.902;2023-02-14T04:17:09;5.60;99.90
22558;DHT22;11445;53.816;8.902;2023-02-14T04:19:53;5.60;99.90
22558;DHT22;11445;53.816;8.902;2023-02-14T04:22:20;5.60;99.90
22558;DHT22;11445;53.816;8.902;2023-02-14T04:24:49;5.50;99.90
22558;DHT22;11445;53.816;8.902;2023-02-14T04:27:16;5.50;99.90
22558;DHT22;11445;53.816;8.902;2023-02-14T04:29:47;5.50;99.90
22558;DHT22;11445;53.816;8.902;2023-02-14T04:32:16;5.50;99.90
22558;DHT22;11445;53.816;8.902;2023-02-14T04:34:44;5.50;99.90
22558;DHT22;11445;53.816;8.902;2023-02-14T04:37:12;5.50;99.90
22558;DHT22;11445;53.816;8.902;2023-02-14T04:39:39;5.50;99.90
22558;DHT22;11445;53.816;8.902;2023-02-14T04:42:08;5.50;99.90
22558;DHT22;11445;53.816;8.902;2023-02-14T04:44:35;5.50;99.90
22558;DHT22;11445;53.816;8.902;2023-02-14T04:47:03;5.50;99.90
22558;DHT22;11445;53.816;8.902;2023-02-14T04:49:30;5.50;99.90
22558;DHT22;11445;53.816;8.902;2023-02-14T04:51:58;5.50;99.90
22558;DHT22;11445;53.816;8.902;2023-02-14T04:54:25;5.50;99.90
22558;DHT22;11445;53.816;8.902;2023-02-14T04:56:52;5.50;99.90
22558;DHT22;11445;53.816;8.902;2023-02-14T04:59:21;5.40;99.90
22558;DHT22;11445;53.816;8.902;2023-02-14T05:01:48;5.40;99.90
22558;DHT22;11445;53.816;8.902;2023-02-14T05:04:15;5.40;99.90
22558;DHT22;11445;53.816;8.902;2023-02-14T05:06:42;5.40;99.90
22558;DHT22;11445;53.816;8.902;2023-02-14T05:09:09;5.40;99.90
22558;DHT22;11445;53.816;8.902;2023-02-14T05:11:36;5.30;99.90
22558;DHT22;11445;53.816;8.902;2023-02-14T05:14:04;5.30;99.90
22558;DHT22;11445;53.816;8.902;2023-02-14T05:16:32;5.30;99.90
22558;DHT22;11445;53.816;8.902;2023-02-14T05:18:59;5.30;99.90
22558;DHT22;11445;53.816;8.902;2023-02-14T05:21:26;5.20;99.90
22558;DHT22;11445;53.816;8.902;2023-02-14T05:23:58;5.20;99.90
22558;DHT22;11445;53.816;8.902;2023-02-14T05:26:26;5.20;99.90
22558;DHT22;11445;53.816;8.902;2023-02-14T05:28:53;5.20;99.90
22558;DHT22;11445;53.816;8.902;2023-02-14T05:31:20;5.10;99.90
22558;DHT22;11445;53.816;8.902;2023-02-14T05:33:48;5.10;99.90
22558;DHT22;11445;53.816;8.902;2023-02-14T05:36:15;5.10;99.90
22558;DHT22;11445;53.816;8.902;2023-02-14T05:38:43;5.10;99.90
22558;DHT22;11445;53.816;8.902;2023-02-14T05:41:10;5.00;99.90
22558;DHT22;11445;53.816;8.902;2023-02-14T05:43:37;5.00;99.90
22558;DHT22;11445;53.816;8.902;2023-02-14T05:46:04;5.00;99.90
22558;DHT22;11445;53.816;8.902;2023-02-14T05:48:32;5.00;99.90
22558;DHT22;11445;53.816;8.902;2023-02-14T05:51:03;4.90;99.90
22558;DHT22;11445;53.816;8.902;2023-02-14T05:53:31;4.90;99.90
22558;DHT22;11445;53.816;8.902;2023-02-14T05:55:59;4.90;99.90
22558;DHT22;11445;53.816;8.902;2023-02-14T05:58:26;4.90;99.90
22558;DHT22;11445;53.816;8.902;2023-02-14T06:00:53;4.80;99.90
22558;DHT22;11445;53.816;8.902;2023-02-14T06:03:21;4.80;99.90
22558;DHT22;11445;53.816;8.902;2023-02-14T06:05:48;4.70;99.90
22558;DHT22;11445;53.816;8.902;2023-02-14T06:08:17;4.70;99.90
22558;DHT22;11445;53.816;8.902;2023-02-14T06:10:45;4.70;99.90
22558;DHT22;11445;53.816;8.902;2023-02-14T06:13:12;4.70;99.90
22558;DHT22;11445;53.816;8.902;2023-02-14T06:15:39;4.60;99.90
22558;DHT22;11445;53.816;8.902;2023-02-14T06:18:06;4.60;99.90
22558;DHT22;11445;53.816;8.902;2023-02-14T06:20:33;4.60;99.90
22558;DHT22;11445;53.816;8.902;2023-02-14T06:23:00;4.50;99.90
22558;DHT22;11445;53.816;8.902;2023-02-14T06:25:29;4.50;99.90
22558;DHT22;11445;53.816;8.902;2023-02-14T06:27:57;4.50;99.90
22558;DHT22;11445;53.816;8.902;2023-02-14T06:30:25;4.40;99.90
22558;DHT22;11445;53.816;8.902;2023-02-14T06:32:52;4.40;99.90
22558;DHT22;11445;53.816;8.902;2023-02-14T06:35:19;4.40;99.90
22558;DHT22;11445;53.816;8.902;2023-02-14T06:37:46;4.40;99.90
22558;DHT22;11445;53.816;8.902;2023-02-14T06:40:13;4.40;99.90
22558;DHT22;11445;53.816;8.902;2023-02-14T06:42:42;4.40;99.90
22558;DHT22;11445;53.816;8.902;2023-02-14T06:45:09;4.40;99.90
22558;DHT22;11445;53.816;8.902;2023-02-14T06:47:36;4.40;99.90
22558;DHT22;11445;53.816;8.902;2023-02-14T06:50:04;4.40;99.90
22558;DHT22;11445;53.816;8.902;2023-02-14T06:52:32;4.40;99.90
22558;DHT22;11445;53.816;8.902;2023-02-14T06:54:59;4.50;99.90
22558;DHT22;11445;53.816;8.902;2023-02-14T06:57:26;4.60;99.90
22558;DHT22;11445;53.816;8.902;2023-02-14T06:59:54;4.80;99.90
22558;DHT22;11445;53.816;8.902;2023-02-14T07:02:21;4.90;99.90
22558;DHT22;11445;53.816;8.902;2023-02-14T07:04:48;4.80;99.90
22558;DHT22;11445;53.816;8.902;2023-02-14T07:07:15;4.80;99.90
22558;DHT22;11445;53.816;8.902;2023-02-14T07:09:43;4.70;99.90
22558;DHT22;11445;53.816;8.902;2023-02-14T07:12:10;4.60;99.90
22558;DHT22;11445;53.816;8.902;2023-02-14T07:14:37;4.60;99.90
22558;DHT22;11445;53.816;8.902;2023-02-14T07:17:05;4.80;99.90
22558;DHT22;11445;53.816;8.902;2023-02-14T07:19:32;5.00;99.90
22558;DHT22;11445;53.816;8.902;2023-02-14T07:21:59;5.00;99.90
22558;DHT22;11445;53.816;8.902;2023-02-14T07:24:26;5.00;99.90
22558;DHT22;11445;53.816;8.902;2023-02-14T07:26:53;4.90;99.90
22558;DHT22;11445;53.816;8.902;2023-02-14T07:29:20;4.80;99.90
22558;DHT22;11445;53.816;8.902;2023-02-14T07:31:48;4.80;99.90
22558;DHT22;11445;53.816;8.902;2023-02-14T07:34:16;4.80;99.90
22558;DHT22;11445;53.816;8.902;2023-02-14T07:36:44;4.80;99.90
22558;DHT22;11445;53.816;8.902;2023-02-14T07:39:11;4.80;99.90
22558;DHT22;11445;53.816;8.902;2023-02-14T07:41:38;4.70;99.90
22558;DHT22;11445;53.816;8.902;2023-02-14T07:44:05;4.70;99.90
22558;DHT22;11445;53.816;8.902;2023-02-14T07:46:32;4.80;99.90
22558;DHT22;11445;53.816;8.902;2023-02-14T07:48:59;4.80;99.90
22558;DHT22;11445;53.816;8.902;2023-02-14T07:51:27;4.80;99.90
22558;DHT22;11445;53.816;8.902;2023-02-14T07:53:54;4.90;99.90
22558;DHT22;11445;53.816;8.902;2023-02-14T07:56:22;4.80;99.90
22558;DHT22;11445;53.816;8.902;2023-02-14T07:58:49;4.90;99.90
22558;DHT22;11445;53.816;8.902;2023-02-14T08:01:16;4.90;99.90
22558;DHT22;11445;53.816;8.902;2023-02-14T08:03:43;4.90;99.90
22558;DHT22;11445;53.816;8.902;2023-02-14T08:06:11;4.90;99.90
22558;DHT22;11445;53.816;8.902;2023-02-14T08:08:40;4.90;99.90
22558;DHT22;11445;53.816;8.902;2023-02-14T08:11:07;4.90;99.90
22558;DHT22;11445;53.816;8.902;2023-02-14T08:13:34;5.00;99.90
22558;DHT22;11445;53.816;8.902;2023-02-14T08:16:01;5.00;99.90
22558;DHT22;11445;53.816;8.902;2023-02-14T08:18:33;5.00;99.90
22558;DHT22;11445;53.816;8.902;2023-02-14T08:21:00;5.10;99.90
22558;DHT22;11445;53.816;8.902;2023-02-14T08:23:28;5.10;99.90
22558;DHT22;11445;53.816;8.902;2023-02-14T08:25:56;5.10;99.90
22558;DHT22;11445;53.816;8.902;2023-02-14T08:28:24;5.20;99.90
22558;DHT22;11445;53.816;8.902;2023-02-14T08:30:51;5.20;99.90
22558;DHT22;11445;53.816;8.902;2023-02-14T08:33:19;5.30;99.90
22558;DHT22;11445;53.816;8.902;2023-02-14T08:35:46;5.30;99.90
22558;DHT22;11445;53.816;8.902;2023-02-14T08:38:14;5.30;99.90
22558;DHT22;11445;53.816;8.902;2023-02-14T08:40:41;5.40;99.90
22558;DHT22;11445;53.816;8.902;2023-02-14T08:43:09;5.50;99.90
22558;DHT22;11445;53.816;8.902;2023-02-14T08:45:36;5.50;99.90
22558;DHT22;11445;53.816;8.902;2023-02-14T08:48:05;5.50;99.90
22558;DHT22;11445;53.816;8.902;2023-02-14T08:50:33;5.60;99.90
22558;DHT22;11445;53.816;8.902;2023-02-14T08:53:00;5.70;99.90
22558;DHT22;11445;53.816;8.902;2023-02-14T08:55:27;5.70;99.90
22558;DHT22;11445;53.816;8.902;2023-02-14T08:57:55;5.70;99.90
22558;DHT22;11445;53.816;8.902;2023-02-14T09:00:24;5.80;99.90
22558;DHT22;11445;53.816;8.902;2023-02-14T09:02:51;5.80;99.90
22558;DHT22;11445;53.816;8.902;2023-02-14T09:05:19;5.90;99.90
22558;DHT22;11445;53.816;8.902;2023-02-14T09:07:48;5.90;99.90
22558;DHT22;11445;53.816;8.902;2023-02-14T09:10:15;6.00;99.90
22558;DHT22;11445;53.816;8.902;2023-02-14T09:12:43;6.00;99.90
22558;DHT22;11445;53.816;8.902;2023-02-14T09:15:11;6.10;99.90
22558;DHT22;11445;53.816;8.902;2023-02-14T09:17:39;6.10;99.90
22558;DHT22;11445;53.816;8.902;2023-02-14T09:20:09;6.10;99.90
22558;DHT22;11445;53.816;8.902;2023-02-14T09:22:37;6.20;99.90
22558;DHT22;11445;53.816;8.902;2023-02-14T09:25:04;6.30;99.90
22558;DHT22;11445;53.816;8.902;2023-02-14T09:27:31;6.30;99.90
22558;DHT22;11445;53.816;8.902;2023-02-14T09:29:59;6.30;99.90
22558;DHT22;11445;53.816;8.902;2023-02-14T09:32:26;6.40;99.90
22558;DHT22;11445;53.816;8.902;2023-02-14T09:34:55;6.40;99.90
22558;DHT22;11445;53.816;8.902;2023-02-14T09:37:22;6.40;99.90
22558;DHT22;11445;53.816;8.902;2023-02-14T09:40:07;6.50;99.90
22558;DHT22;11445;53.816;8.902;2023-02-14T09:42:47;6.50;99.90
22558;DHT22;11445;53.816;8.902;2023-02-14T09:45:19;6.60;99.90
22558;DHT22;11445;53.816;8.902;2023-02-14T09:47:49;6.60;99.90
22558;DHT22;11445;53.816;8.902;2023-02-14T09:50:23;6.70;99.90
22558;DHT22;11445;53.816;8.902;2023-02-14T09:52:54;6.70;99.90
22558;DHT22;11445;53.816;8.902;2023-02-14T09:55:25;6.70;99.90
22558;DHT22;11445;53.816;8.902;2023-02-14T09:58:05;6.80;99.90
22558;DHT22;11445;53.816;8.902;2023-02-14T10:00:37;6.80;99.90
22558;DHT22;11445;53.816;8.902;2023-02-14T10:03:36;6.80;99.90
22558;DHT22;11445;53.816;8.902;2023-02-14T10:06:14;6.90;99.90
22558;DHT22;11445;53.816;8.902;2023-02-14T10:08:55;7.00;99.90
22558;DHT22;11445;53.816;8.902;2023-02-14T10:11:24;7.00;99.90
22558;DHT22;11445;53.816;8.902;2023-02-14T10:13:55;7.00;99.90
22558;DHT22;11445;53.816;8.902;2023-02-14T10:16:26;7.10;99.90
22558;DHT22;11445;53.816;8.902;2023-02-14T10:18:59;7.10;99.90
22558;DHT22;11445;53.816;8.902;2023-02-14T10:21:32;7.20;99.90
22558;DHT22;11445;53.816;8.902;2023-02-14T10:24:04;7.30;99.90
22558;DHT22;11445;53.816;8.902;2023-02-14T10:26:37;7.30;99.90
22558;DHT22;11445;53.816;8.902;2023-02-14T10:29:10;7.30;99.90
22558;DHT22;11445;53.816;8.902;2023-02-14T10:31:44;7.40;99.90
22558;DHT22;11445;53.816;8.902;2023-02-14T10:34:25;7.40;99.90
22558;DHT22;11445;53.816;8.902;2023-02-14T10:40:30;7.50;99.90
22558;DHT22;11445;53.816;8.902;2023-02-14T10:43:08;7.60;99.90
22558;DHT22;11445;53.816;8.902;2023-02-14T10:45:44;7.70;99.90
22558;DHT22;11445;53.816;8.902;2023-02-14T10:48:20;7.70;99.90
22558;DHT22;11445;53.816;8.902;2023-02-14T10:50:54;7.80;99.90
22558;DHT22;11445;53.816;8.902;2023-02-14T10:53:30;7.80;99.90
22558;DHT22;11445;53.816;8.902;2023-02-14T10:56:03;7.90;99.90
22558;DHT22;11445;53.816;8.902;2023-02-14T10:58:34;7.90;99.90
22558;DHT22;11445;53.816;8.902;2023-02-14T11:01:07;7.90;99.90
22558;DHT22;11445;53.816;8.902;2023-02-14T11:03:38;7.90;99.90
22558;DHT22;11445;53.816;8.902;2023-02-14T11:06:06;8.00;99.90
22558;DHT22;11445;53.816;8.902;2023-02-14T11:08:36;8.00;99.90
22558;DHT22;11445;53.816;8.902;2023-02-14T11:11:10;8.10;99.90
22558;DHT22;11445;53.816;8.902;2023-02-14T11:13:40;8.10;99.90
22558;DHT22;11445;53.816;8.902;2023-02-14T11:16:08;8.20;99.90
22558;DHT22;11445;53.816;8.902;2023-02-14T11:18:38;8.20;99.90
22558;DHT22;11445;53.816;8.902;2023-02-14T11:21:08;8.20;99.90
22558;DHT22;11445;53.816;8.902;2023-02-14T11:23:39;8.20;99.90
22558;DHT22;11445;53.816;8.902;2023-02-14T11:26:24;8.30;99.90
22558;DHT22;11445;53.816;8.902;2023-02-14T11:28:55;8.30;99.90
22558;DHT22;11445;53.816;8.902;2023-02-14T11:31:28;8.40;99.90
22558;DHT22;11445;53.816;8.902;2023-02-14T11:33:56;8.40;99.90
22558;DHT22;11445;53.816;8.902;2023-02-14T11:36:24;8.50;99.90
22558;DHT22;11445;53.816;8.902;2023-02-14T11:39:02;8.50;99.90
22558;DHT22;11445;53.816;8.902;2023-02-14T11:41:46;8.60;99.90
22558;DHT22;11445;53.816;8.902;2023-02-14T11:44:16;8.60;99.90
22558;DHT22;11445;53.816;8.902;2023-02-14T11:46:47;8.70;99.90
22558;DHT22;11445;53.816;8.902;2023-02-14T11:49:24;8.70;99.90
22558;DHT22;11445;53.816;8.902;2023-02-14T11:51:53;8.80;99.90
22558;DHT22;11445;53.816;8.902;2023-02-14T11:54:34;8.80;99.90
22558;DHT22;11445;53.816;8.902;2023-02-14T11:57:03;8.90;99.90
22558;DHT22;11445;53.816;8.902;2023-02-14T11:59:36;8.90;99.90
22558;DHT22;11445;53.816;8.902;2023-02-14T12:02:19;8.90;99.90
22558;DHT22;11445;53.816;8.902;2023-02-14T12:04:50;8.90;99.90
22558;DHT22;11445;53.816;8.902;2023-02-14T12:07:22;8.90;99.90
22558;DHT22;11445;53.816;8.902;2023-02-14T12:10:18;9.00;99.90
22558;DHT22;11445;53.816;8.902;2023-02-14T12:12:58;9.00;99.90
22558;DHT22;11445;53.816;8.902;2023-02-14T12:15:29;9.00;99.90
22558;DHT22;11445;53.816;8.902;2023-02-14T12:18:15;9.00;99.90
22558;DHT22;11445;53.816;8.902;2023-02-14T12:20:47;9.10;99.90
22558;DHT22;11445;53.816;8.902;2023-02-14T12:23:19;9.10;99.90
22558;DHT22;11445;53.816;8.902;2023-02-14T12:25:52;9.20;99.90
22558;DHT22;11445;53.816;8.902;2023-02-14T12:28:28;9.20;99.90
22558;DHT22;11445;53.816;8.902;2023-02-14T12:30:56;9.20;99.90
22558;DHT22;11445;53.816;8.902;2023-02-14T12:33:23;9.30;99.90
22558;DHT22;11445;53.816;8.902;2023-02-14T12:35:55;9.30;99.90
22558;DHT22;11445;53.816;8.902;2023-02-14T12:38:33;9.30;99.90
22558;DHT22;11445;53.816;8.902;2023-02-14T12:41:19;9.40;99.90
22558;DHT22;11445;53.816;8.902;2023-02-14T12:43:50;9.40;99.90
22558;DHT22;11445;53.816;8.902;2023-02-14T12:46:49;9.40;99.90
22558;DHT22;11445;53.816;8.902;2023-02-14T12:49:31;9.40;99.90
22558;DHT22;11445;53.816;8.902;2023-02-14T12:52:07;9.40;99.90
22558;DHT22;11445;53.816;8.902;2023-02-14T12:54:57;9.50;99.90
22558;DHT22;11445;53.816;8.902;2023-02-14T12:57:35;9.50;99.90
22558;DHT22;11445;53.816;8.902;2023-02-14T13:00:17;9.60;99.90
22558;DHT22;11445;53.816;8.902;2023-02-14T13:05:48;10.10;99.90
22558;DHT22;11445;53.816;8.902;2023-02-14T13:08:24;10.10;99.90
22558;DHT22;11445;53.816;8.902;2023-02-14T13:10:59;10.10;99.90
22558;DHT22;11445;53.816;8.902;2023-02-14T13:13:40;10.10;99.90
22558;DHT22;11445;53.816;8.902;2023-02-14T13:16:16;10.00;99.90
22558;DHT22;11445;53.816;8.902;2023-02-14T13:18:52;10.00;99.90
22558;DHT22;11445;53.816;8.902;2023-02-14T13:21:25;10.00;99.90
22558;DHT22;11445;53.816;8.902;2023-02-14T13:23:57;10.10;99.90
22558;DHT22;11445;53.816;8.902;2023-02-14T13:26:30;10.30;99.90
22558;DHT22;11445;53.816;8.902;2023-02-14T13:29:06;10.30;99.90
22558;DHT22;11445;53.816;8.902;2023-02-14T13:31:35;10.30;99.90
22558;DHT22;11445;53.816;8.902;2023-02-14T13:34:07;10.30;99.90
22558;DHT22;11445;53.816;8.902;2023-02-14T13:36:40;10.30;99.90
22558;DHT22;11445;53.816;8.902;2023-02-14T13:39:16;10.30;99.90
22558;DHT22;11445;53.816;8.902;2023-02-14T13:41:44;10.20;99.90
22558;DHT22;11445;53.816;8.902;2023-02-14T13:44:42;10.20;99.90
22558;DHT22;11445;53.816;8.902;2023-02-14T13:47:16;10.20;99.90
22558;DHT22;11445;53.816;8.902;2023-02-14T13:49:49;10.20;99.90
22558;DHT22;11445;53.816;8.902;2023-02-14T13:52:38;10.20;99.90
22558;DHT22;11445;53.816;8.902;2023-02-14T13:55:06;10.20;99.90
22558;DHT22;11445;53.816;8.902;2023-02-14T13:57:34;10.10;99.90
22558;DHT22;11445;53.816;8.902;2023-02-14T14:00:41;10.10;99.90
22558;DHT22;11445;53.816;8.902;2023-02-14T14:03:13;10.10;99.90
22558;DHT22;11445;53.816;8.902;2023-02-14T14:05:57;10.10;99.90
22558;DHT22;11445;53.816;8.902;2023-02-14T14:08:42;10.10;99.90
22558;DHT22;11445;53.816;8.902;2023-02-14T14:11:15;10.10;99.90
22558;DHT22;11445;53.816;8.902;2023-02-14T14:14:00;10.00;99.90
22558;DHT22;11445;53.816;8.902;2023-02-14T14:16:32;10.00;99.90
22558;DHT22;11445;53.816;8.902;2023-02-14T14:19:02;10.00;99.90
22558;DHT22;11445;53.816;8.902;2023-02-14T14:21:32;10.00;99.90
22558;DHT22;11445;53.816;8.902;2023-02-14T14:24:16;10.00;99.90
22558;DHT22;11445;53.816;8.902;2023-02-14T14:26:46;10.00;99.90
22558;DHT22;11445;53.816;8.902;2023-02-14T14:29:18;10.00;99.90
22558;DHT22;11445;53.816;8.902;2023-02-14T14:31:48;10.00;99.90
22558;DHT22;11445;53.816;8.902;2023-02-14T14:34:21;10.00;99.90
22558;DHT22;11445;53.816;8.902;2023-02-14T14:36:49;10.10;99.90
22558;DHT22;11445;53.816;8.902;2023-02-14T14:39:27;10.00;99.90
22558;DHT22;11445;53.816;8.902;2023-02-14T14:41:55;10.00;99.90
22558;DHT22;11445;53.816;8.902;2023-02-14T14:44:31;10.00;99.90
22558;DHT22;11445;53.816;8.902;2023-02-14T14:47:01;10.00;99.90
22558;DHT22;11445;53.816;8.902;2023-02-14T14:49:28;9.90;99.90
22558;DHT22;11445;53.816;8.902;2023-02-14T14:51:56;9.90;99.90
22558;DHT22;11445;53.816;8.902;2023-02-14T14:54:23;9.90;99.90
22558;DHT22;11445;53.816;8.902;2023-02-14T14:56:54;9.80;99.90
22558;DHT22;11445;53.816;8.902;2023-02-14T14:59:28;9.80;99.90
22558;DHT22;11445;53.816;8.902;2023-02-14T15:01:55;9.80;99.90
22558;DHT22;11445;53.816;8.902;2023-02-14T15:04:26;9.90;99.90
22558;DHT22;11445;53.816;8.902;2023-02-14T15:06:55;10.00;99.90
22558;DHT22;11445;53.816;8.902;2023-02-14T15:09:28;10.00;99.90
22558;DHT22;11445;53.816;8.902;2023-02-14T15:11:55;10.00;99.90
22558;DHT22;11445;53.816;8.902;2023-02-14T15:14:43;9.90;99.90
22558;DHT22;11445;53.816;8.902;2023-02-14T15:17:16;9.90;99.90
22558;DHT22;11445;53.816;8.902;2023-02-14T15:19:47;9.90;99.90
22558;DHT22;11445;53.816;8.902;2023-02-14T15:22:19;9.80;99.90
22558;DHT22;11445;53.816;8.902;2023-02-14T15:24:47;9.80;99.90
22558;DHT22;11445;53.816;8.902;2023-02-14T15:27:16;9.70;99.90
22558;DHT22;11445;53.816;8.902;2023-02-14T15:29:53;9.70;99.90
22558;DHT22;11445;53.816;8.902;2023-02-14T15:32:21;9.70;99.90
22558;DHT22;11445;53.816;8.902;2023-02-14T15:34:50;9.60;99.90
22558;DHT22;11445;53.816;8.902;2023-02-14T15:37:18;9.60;99.90
22558;DHT22;11445;53.816;8.902;2023-02-14T15:39:49;9.60;99.90
22558;DHT22;11445;53.816;8.902;2023-02-14T15:42:23;9.50;99.90
22558;DHT22;11445;53.816;8.902;2023-02-14T15:45:15;9.50;99.90
22558;DHT22;11445;53.816;8.902;2023-02-14T15:47:44;9.50;99.90
22558;DHT22;11445;53.816;8.902;2023-02-14T15:50:16;9.50;99.90
22558;DHT22;11445;53.816;8.902;2023-02-14T15:52:44;9.40;99.90
22558;DHT22;11445;53.816;8.902;2023-02-14T15:55:15;9.40;99.90
22558;DHT22;11445;53.816;8.902;2023-02-14T15:57:52;9.30;99.90
22558;DHT22;11445;53.816;8.902;2023-02-14T16:00:22;9.30;99.90
22558;DHT22;11445;53.816;8.902;2023-02-14T16:02:52;9.20;99.90
22558;DHT22;11445;53.816;8.902;2023-02-14T16:05:24;9.20;99.90
22558;DHT22;11445;53.816;8.902;2023-02-14T16:07:56;9.10;99.90
22558;DHT22;11445;53.816;8.902;2023-02-14T16:10:24;9.20;99.90
22558;DHT22;11445;53.816;8.902;2023-02-14T16:12:57;9.50;99.90
22558;DHT22;11445;53.816;8.902;2023-02-14T16:15:25;9.60;99.90
22558;DHT22;11445;53.816;8.902;2023-02-14T16:17:52;9.50;99.90
22558;DHT22;11445;53.816;8.902;2023-02-14T16:20:36;9.40;99.90
22558;DHT22;11445;53.816;8.902;2023-02-14T16:23:21;9.30;99.90
22558;DHT22;11445;53.816;8.902;2023-02-14T16:25:49;9.20;99.90
22558;DHT22;11445;53.816;8.902;2023-02-14T16:28:22;9.10;99.90
22558;DHT22;11445;53.816;8.902;2023-02-14T16:30:53;9.00;99.90